createdAt,value
2022-10-18T00:00:00.192Z,102651.00
2022-10-18T00:02:26.707Z,102643.38
2022-10-18T00:04:53.150Z,102644.88
2022-10-18T00:07:19.684Z,102643.38
2022-10-18T00:09:46.070Z,102634.19
2022-10-18T00:12:12.473Z,102636.09
2022-10-18T00:14:38.896Z,102633.81
2022-10-18T00:17:05.309Z,102638.81
2022-10-18T00:19:31.690Z,102645.69
2022-10-18T00:21:58.059Z,102646.44
2022-10-18T00:24:24.436Z,102635.75
2022-10-18T00:26:50.923Z,102633.06
2022-10-18T00:29:17.353Z,102642.63
2022-10-18T00:31:44.276Z,102646.84
2022-10-18T00:34:16.364Z,102646.84
2022-10-18T00:36:43.779Z,102646.44
2022-10-18T00:39:15.533Z,102649.84
2022-10-18T00:41:41.943Z,102650.22
2022-10-18T00:44:11.274Z,102654.06
2022-10-18T00:46:40.738Z,102650.69
2022-10-18T00:49:31.032Z,102652.19
2022-10-18T00:52:02.360Z,102653.75
2022-10-18T00:54:30.934Z,102651.50
2022-10-18T00:56:57.419Z,102655.69
2022-10-18T00:59:24.647Z,102653.41
2022-10-18T01:01:51.586Z,102656.09
2022-10-18T01:04:19.776Z,102659.53
2022-10-18T01:07:04.520Z,102669.06
2022-10-18T01:09:33.920Z,102659.53
2022-10-18T01:12:03.280Z,102661.44
2022-10-18T01:14:50.121Z,102662.59
2022-10-18T01:17:31.800Z,102660.34
2022-10-18T01:20:11.724Z,102660.75
2022-10-18T01:22:44.832Z,102658.88
2022-10-18T01:25:36.438Z,102659.28
2022-10-18T01:28:18.127Z,102658.59
2022-10-18T01:30:55.940Z,102668.94
2022-10-18T01:33:37.568Z,102679.63
2022-10-18T01:36:19.780Z,102682.66
2022-10-18T01:38:49.896Z,102688.00
2022-10-18T01:41:19.117Z,102675.81
2022-10-18T01:43:48.254Z,102677.03
2022-10-18T01:46:19.612Z,102674.00
2022-10-18T01:48:46.756Z,102682.38
2022-10-18T01:51:13.132Z,102675.09
2022-10-18T01:53:39.582Z,102663.66
2022-10-18T01:56:14.981Z,102674.34
2022-10-18T01:59:02.997Z,102669.06
2022-10-18T02:01:40.778Z,102670.63
2022-10-18T02:04:31.998Z,102668.78
2022-10-18T02:07:07.360Z,102668.88
2022-10-18T02:09:42.853Z,102672.69
2022-10-18T02:12:13.811Z,102664.75
2022-10-18T02:14:42.981Z,102667.81
2022-10-18T02:17:12.333Z,102670.13
2022-10-18T02:19:43.233Z,102674.72
2022-10-18T02:22:12.005Z,102670.13
2022-10-18T02:24:44.657Z,102677.41
2022-10-18T02:27:11.367Z,102674.38
2022-10-18T02:29:39.265Z,102673.69
2022-10-18T02:32:18.004Z,102671.81
2022-10-18T02:34:52.618Z,102676.06
2022-10-18T02:37:20.324Z,102672.28
2022-10-18T02:39:49.191Z,102674.25
2022-10-18T02:42:15.771Z,102681.50
2022-10-18T02:44:42.328Z,102668.97
2022-10-18T02:47:10.898Z,102676.28
2022-10-18T02:49:37.269Z,102671.41
2022-10-18T02:52:03.852Z,102671.06
2022-10-18T02:54:30.233Z,102676.81
2022-10-18T02:56:56.660Z,102682.94
2022-10-18T02:59:23.036Z,102684.09
2022-10-18T03:01:49.696Z,102671.91
2022-10-18T03:04:16.314Z,102655.94
2022-10-18T03:06:42.834Z,102666.63
2022-10-18T03:09:09.794Z,102662.44
2022-10-18T03:11:36.170Z,102664.75
2022-10-18T03:14:02.835Z,102678.91
2022-10-18T03:16:29.327Z,102672.81
2022-10-18T03:18:55.710Z,102680.88
2022-10-18T03:21:22.162Z,102680.94
2022-10-18T03:23:48.648Z,102687.81
2022-10-18T03:26:15.059Z,102673.31
2022-10-18T03:28:41.485Z,102676.44
2022-10-18T03:31:07.911Z,102682.19
2022-10-18T03:33:34.296Z,102684.50
2022-10-18T03:36:00.693Z,102681.91
2022-10-18T03:38:27.326Z,102670.09
2022-10-18T03:40:53.841Z,102671.63
2022-10-18T03:43:20.228Z,102679.28
2022-10-18T03:45:46.635Z,102676.66
2022-10-18T03:48:13.098Z,102679.72
2022-10-18T03:50:39.472Z,102675.94
2022-10-18T03:53:05.856Z,102676.72
2022-10-18T03:55:32.227Z,102679.09
2022-10-18T03:57:58.597Z,102687.09
2022-10-18T04:00:25.208Z,102679.94
2022-10-18T04:02:54.915Z,102677.66
2022-10-18T04:05:24.228Z,102670.06
2022-10-18T04:07:50.724Z,102665.53
2022-10-18T04:10:18.552Z,102676.31
2022-10-18T04:12:44.959Z,102677.13
2022-10-18T04:15:11.642Z,102671.84
2022-10-18T04:17:38.035Z,102668.84
2022-10-18T04:20:04.945Z,102668.50
2022-10-18T04:22:31.363Z,102676.13
2022-10-18T04:24:57.800Z,102686.44
2022-10-18T04:27:24.419Z,102676.97
2022-10-18T04:29:50.802Z,102672.38
2022-10-18T04:32:17.204Z,102676.59
2022-10-18T04:37:14.958Z,102671.31
2022-10-18T04:39:41.335Z,102669.88
2022-10-18T04:42:07.784Z,102669.50
2022-10-18T04:44:34.376Z,102675.22
2022-10-18T04:47:00.780Z,102673.34
2022-10-18T04:49:27.151Z,102670.31
2022-10-18T04:51:53.512Z,102673.75
2022-10-18T04:54:21.053Z,102672.22
2022-10-18T04:56:49.201Z,102678.34
2022-10-18T04:59:15.639Z,102680.25
2022-10-18T05:01:42.107Z,102675.72
2022-10-18T05:04:09.414Z,102687.16
2022-10-18T05:06:35.797Z,102676.53
2022-10-18T05:09:02.188Z,102676.16
2022-10-18T05:11:28.565Z,102682.25
2022-10-18T05:13:55.089Z,102687.97
2022-10-18T05:16:21.553Z,102690.66
2022-10-18T05:18:48.204Z,102690.34
2022-10-18T05:21:14.935Z,102690.34
2022-10-18T05:23:41.355Z,102691.47
2022-10-18T05:26:09.099Z,102701.44
2022-10-18T05:28:39.998Z,102700.69
2022-10-18T05:31:08.513Z,102707.50
2022-10-18T05:33:35.023Z,102714.03
2022-10-18T05:36:01.530Z,102715.53
2022-10-18T05:38:30.872Z,102713.66
2022-10-18T05:41:04.097Z,102708.34
2022-10-18T05:43:30.479Z,102713.28
2022-10-18T05:45:57.019Z,102716.31
2022-10-18T05:48:23.547Z,102714.81
2022-10-18T05:50:49.923Z,102724.31
2022-10-18T05:53:35.683Z,102717.47
2022-10-18T05:56:03.933Z,102724.31
2022-10-18T05:58:30.404Z,102728.88
2022-10-18T06:01:04.383Z,102731.16
2022-10-18T06:03:31.233Z,102730.78
2022-10-18T06:06:05.319Z,102746.00
2022-10-18T06:08:32.416Z,102751.72
2022-10-18T06:10:59.237Z,102752.13
2022-10-18T06:13:25.937Z,102744.88
2022-10-18T06:15:57.094Z,102746.41
2022-10-18T06:18:23.511Z,102758.97
2022-10-18T06:20:49.918Z,102766.97
2022-10-18T06:23:16.276Z,102768.88
2022-10-18T06:25:42.666Z,102758.63
2022-10-18T06:28:11.514Z,102765.13
2022-10-18T06:30:38.687Z,102780.75
2022-10-18T06:33:05.081Z,102781.88
2022-10-18T06:35:31.466Z,102779.63
2022-10-18T06:37:57.960Z,102783.41
2022-10-18T06:40:24.543Z,102787.63
2022-10-18T06:43:00.156Z,102790.66
2022-10-18T06:45:27.278Z,102794.88
2022-10-18T06:47:53.662Z,102796.78
2022-10-18T06:50:20.029Z,102797.91
2022-10-18T06:52:48.753Z,102802.47
2022-10-18T06:55:15.166Z,102803.97
2022-10-18T06:57:41.642Z,102813.13
2022-10-18T07:00:08.833Z,102808.56
2022-10-18T07:02:35.476Z,102812.34
2022-10-18T07:05:01.897Z,102816.13
2022-10-18T07:07:31.292Z,102824.47
2022-10-18T07:09:58.011Z,102821.41
2022-10-18T07:12:24.748Z,102830.91
2022-10-18T07:14:51.123Z,102832.38
2022-10-18T07:17:17.497Z,102829.66
2022-10-18T07:19:43.941Z,102833.44
2022-10-18T07:22:10.320Z,102837.19
2022-10-18T07:24:36.761Z,102838.66
2022-10-18T07:27:03.349Z,102834.41
2022-10-18T07:29:29.758Z,102827.91
2022-10-18T07:31:56.343Z,102836.97
2022-10-18T07:34:22.743Z,102850.22
2022-10-18T07:36:49.214Z,102853.59
2022-10-18T07:39:16.304Z,102858.84
2022-10-18T07:41:42.826Z,102852.63
2022-10-18T07:44:09.685Z,102858.25
2022-10-18T07:46:36.071Z,102852.50
2022-10-18T07:49:02.864Z,102857.38
2022-10-18T07:51:30.882Z,102855.03
2022-10-18T07:53:57.440Z,102858.72
2022-10-18T07:56:23.835Z,102875.78
2022-10-18T07:58:53.148Z,102874.50
2022-10-18T08:01:22.216Z,102877.41
2022-10-18T08:03:49.263Z,102879.19
2022-10-18T08:06:18.415Z,102875.66
2022-10-18T08:08:46.005Z,102882.81
2022-10-18T08:11:19.965Z,102877.66
2022-10-18T08:13:46.638Z,102883.63
2022-10-18T08:16:16.900Z,102885.38
2022-10-18T08:18:43.320Z,102883.78
2022-10-18T08:21:11.811Z,102892.50
2022-10-18T08:23:38.959Z,102880.22
2022-10-18T08:26:08.122Z,102886.53
2022-10-18T08:28:36.753Z,102891.44
2022-10-18T08:31:05.347Z,102898.19
2022-10-18T08:33:32.566Z,102899.25
2022-10-18T08:36:01.323Z,102898.78
2022-10-18T08:38:31.538Z,102891.81
2022-10-18T08:41:17.997Z,102889.13
2022-10-18T08:44:07.677Z,102888.63
2022-10-18T08:46:37.088Z,102885.50
2022-10-18T08:49:05.287Z,102893.81
2022-10-18T08:51:39.897Z,102889.16
2022-10-18T08:54:15.808Z,102886.34
2022-10-18T08:56:46.892Z,102886.63
2022-10-18T08:59:13.685Z,102886.94
2022-10-18T09:01:52.242Z,102884.84
2022-10-18T09:04:46.328Z,102883.19
2022-10-18T09:07:19.187Z,102889.53
2022-10-18T09:10:08.470Z,102888.56
2022-10-18T09:13:11.981Z,102903.25
2022-10-18T09:15:58.512Z,102899.34
2022-10-18T09:18:48.496Z,102905.34
2022-10-18T09:21:23.816Z,102899.00
2022-10-18T09:24:04.979Z,102898.44
2022-10-18T09:26:45.711Z,102910.09
2022-10-18T09:29:24.385Z,102919.06
2022-10-18T09:32:18.769Z,102914.72
2022-10-18T09:35:17.480Z,102914.91
2022-10-18T09:37:45.355Z,102923.31
2022-10-18T09:40:19.676Z,102930.03
2022-10-18T09:42:51.682Z,102921.97
2022-10-18T09:45:34.544Z,102915.00
2022-10-18T09:48:27.168Z,102922.94
2022-10-18T09:51:02.017Z,102930.94
2022-10-18T09:54:00.524Z,102927.41
2022-10-18T09:56:39.314Z,102927.66
2022-10-18T09:59:23.461Z,102928.41
2022-10-18T10:01:49.882Z,102931.50
2022-10-18T10:04:16.259Z,102935.72
2022-10-18T10:06:50.231Z,102930.25
2022-10-18T10:09:18.478Z,102934.88
2022-10-18T10:11:50.321Z,102936.81
2022-10-18T10:14:26.488Z,102939.81
2022-10-18T10:16:59.335Z,102938.41
2022-10-18T10:19:54.419Z,102941.41
2022-10-18T10:22:28.920Z,102942.50
2022-10-18T10:24:55.578Z,102938.72
2022-10-18T10:27:31.186Z,102940.56
2022-10-18T10:30:04.215Z,102943.34
2022-10-18T10:32:46.131Z,102945.59
2022-10-18T10:35:33.837Z,102949.03
2022-10-18T10:38:23.349Z,102947.13
2022-10-18T10:40:50.339Z,102956.69
2022-10-18T10:43:39.421Z,102954.25
2022-10-18T10:46:19.048Z,102949.47
2022-10-18T10:48:45.424Z,102951.81
2022-10-18T10:51:12.783Z,102964.81
2022-10-18T10:53:50.986Z,102963.31
2022-10-18T10:56:27.344Z,102959.88
2022-10-18T10:58:55.985Z,102961.38
2022-10-18T11:01:27.191Z,102966.00
2022-10-18T11:03:56.740Z,102967.94
2022-10-18T11:06:44.795Z,102961.47
2022-10-18T11:09:22.872Z,102963.72
2022-10-18T11:12:00.847Z,102963.72
2022-10-18T11:14:33.272Z,102971.38
2022-10-18T11:17:10.581Z,102966.66
2022-10-18T11:19:49.623Z,102966.28
2022-10-18T11:22:21.825Z,102965.53
2022-10-18T11:24:48.365Z,102955.13
2022-10-18T11:27:27.356Z,102968.84
2022-10-18T11:30:14.475Z,102955.75
2022-10-18T11:32:54.101Z,102956.84
2022-10-18T11:35:44.247Z,102952.25
2022-10-18T11:38:26.113Z,102955.25
2022-10-18T11:40:52.390Z,102965.84
2022-10-18T11:43:38.911Z,102962.81
2022-10-18T11:46:28.328Z,102950.16
2022-10-18T11:49:09.199Z,102964.25
2022-10-18T11:52:07.142Z,102961.97
2022-10-18T11:55:09.026Z,102963.47
2022-10-18T11:57:57.051Z,102958.78
2022-10-18T12:03:22.282Z,102965.31
2022-10-18T12:05:50.927Z,102949.22
2022-10-18T12:08:30.957Z,102948.47
2022-10-18T12:11:05.831Z,102953.50
2022-10-18T12:13:39.228Z,102946.19
2022-10-18T12:16:08.296Z,102947.63
2022-10-18T12:18:41.531Z,102950.53
2022-10-18T12:21:08.101Z,102949.38
2022-10-18T12:23:52.768Z,102947.09
2022-10-18T12:26:19.499Z,102944.41
2022-10-18T12:29:04.829Z,102938.97
2022-10-18T12:31:50.170Z,102946.69
2022-10-18T12:34:22.546Z,102936.38
2022-10-18T12:37:17.712Z,102938.63
2022-10-18T12:40:05.477Z,102937.44
2022-10-18T12:42:42.362Z,102942.50
2022-10-18T12:45:34.757Z,102945.94
2022-10-18T12:48:05.141Z,102944.09
2022-10-18T12:50:40.379Z,102939.88
2022-10-18T12:53:06.742Z,102943.00
2022-10-18T12:55:51.865Z,102944.50
2022-10-18T12:58:23.604Z,102938.06
2022-10-18T13:00:49.967Z,102938.28
2022-10-18T13:03:17.200Z,102942.16
2022-10-18T13:05:53.886Z,102931.75
2022-10-18T13:08:30.250Z,102923.69
2022-10-18T13:11:11.639Z,102926.03
2022-10-18T13:14:05.873Z,102919.50
2022-10-18T13:16:38.943Z,102914.88
2022-10-18T13:19:39.113Z,102901.78
2022-10-18T13:22:31.103Z,102900.19
2022-10-18T13:25:04.960Z,102908.16
2022-10-18T13:27:46.546Z,102912.75
2022-10-18T13:30:25.983Z,102905.03
2022-10-18T13:32:58.032Z,102906.22
2022-10-18T13:35:48.819Z,102908.06
2022-10-18T13:38:36.472Z,102920.59
2022-10-18T13:41:05.929Z,102923.28
2022-10-18T13:44:13.623Z,102911.78
2022-10-18T13:46:40.012Z,102925.66
2022-10-18T13:49:34.599Z,102930.59
2022-10-18T13:52:28.874Z,102919.22
2022-10-18T13:55:29.471Z,102922.00
2022-10-18T13:58:29.037Z,102922.00
2022-10-18T14:01:21.558Z,102915.97
2022-10-18T14:04:32.983Z,102926.63
2022-10-18T14:07:03.493Z,102923.09
2022-10-18T14:09:52.388Z,102918.13
2022-10-18T14:12:35.734Z,102918.13
2022-10-18T14:15:18.735Z,102930.06
2022-10-18T14:17:50.648Z,102925.44
2022-10-18T14:20:28.651Z,102926.63
2022-10-18T14:23:14.229Z,102932.75
2022-10-18T14:25:40.666Z,102931.56
2022-10-18T14:28:31.251Z,102936.59
2022-10-18T14:31:13.849Z,102937.03
2022-10-18T14:33:43.133Z,102939.81
2022-10-18T14:36:15.635Z,102935.28
2022-10-18T14:38:53.091Z,102933.44
2022-10-18T14:41:37.465Z,102936.97
2022-10-18T14:44:15.849Z,102943.50
2022-10-18T14:46:48.460Z,102935.88
2022-10-18T14:49:16.252Z,102945.19
2022-10-18T14:51:46.375Z,102941.84
2022-10-18T14:54:35.938Z,102935.78
2022-10-18T14:57:04.539Z,102943.94
2022-10-18T14:59:37.625Z,102941.75
2022-10-18T15:02:14.019Z,102959.13
2022-10-18T15:04:43.990Z,102952.31
2022-10-18T15:07:16.725Z,102948.97
2022-10-18T15:09:44.123Z,102958.59
2022-10-18T15:12:15.024Z,102954.50
2022-10-18T15:14:43.111Z,102945.34
2022-10-18T15:17:26.799Z,102949.22
2022-10-18T15:19:54.669Z,102954.25
2022-10-18T15:22:31.649Z,102940.16
2022-10-18T15:25:21.824Z,102948.59
2022-10-18T15:27:55.400Z,102941.50
2022-10-18T15:30:28.905Z,102940.06
2022-10-18T15:33:04.028Z,102945.94
2022-10-18T15:35:33.160Z,102940.31
2022-10-18T15:38:37.301Z,102937.69
2022-10-18T15:41:36.499Z,102940.88
2022-10-18T15:44:31.795Z,102954.34
2022-10-18T15:47:13.237Z,102949.13
2022-10-18T15:49:42.292Z,102950.41
2022-10-18T15:52:08.628Z,102955.84
2022-10-18T15:54:35.072Z,102957.06
2022-10-18T15:57:08.299Z,102957.91
2022-10-18T15:59:34.767Z,102957.22
2022-10-18T16:02:01.456Z,102955.78
2022-10-18T16:04:32.864Z,102957.00
2022-10-18T16:07:00.140Z,102955.22
2022-10-18T16:09:28.141Z,102960.31
2022-10-18T16:11:57.177Z,102955.84
2022-10-18T16:14:25.520Z,102956.72
2022-10-18T16:16:55.246Z,102957.59
2022-10-18T16:19:22.653Z,102960.00
2022-10-18T16:21:50.049Z,102965.88
2022-10-18T16:24:16.825Z,102968.28
2022-10-18T16:26:43.565Z,102954.22
2022-10-18T16:29:24.218Z,102964.63
2022-10-18T16:31:51.561Z,102963.59
2022-10-18T16:34:18.208Z,102963.69
2022-10-18T16:36:45.166Z,102960.72
2022-10-18T16:39:17.175Z,102966.59
2022-10-18T16:41:44.724Z,102969.41
2022-10-18T16:44:11.589Z,102968.00
2022-10-18T16:46:38.539Z,102969.66
2022-10-18T16:49:05.618Z,102968.66
2022-10-18T16:51:32.162Z,102965.72
2022-10-18T16:53:58.682Z,102969.28
2022-10-18T16:56:28.110Z,102986.19
2022-10-18T16:58:54.607Z,102986.31
2022-10-18T17:01:22.575Z,102984.53
2022-10-18T17:03:51.968Z,102987.66
2022-10-18T17:06:24.957Z,102992.66
2022-10-18T17:08:53.025Z,102998.06
2022-10-18T17:11:21.042Z,103000.44
2022-10-18T17:13:47.747Z,102999.75
2022-10-18T17:16:31.916Z,103004.03
2022-10-18T17:19:01.355Z,103003.75
2022-10-18T17:21:29.035Z,103003.47
2022-10-18T17:23:57.360Z,103006.19
2022-10-18T17:26:28.959Z,103015.81
2022-10-18T17:29:00.027Z,103017.47
2022-10-18T17:31:27.443Z,103016.75
2022-10-18T17:33:55.193Z,103020.59
2022-10-18T17:36:22.273Z,103021.38
2022-10-18T17:38:53.124Z,103022.94
2022-10-18T17:41:20.008Z,103019.91
2022-10-18T17:43:47.930Z,103014.25
2022-10-18T17:46:14.537Z,103015.06
2022-10-18T17:48:43.717Z,103019.28
2022-10-18T17:51:12.208Z,103015.13
2022-10-18T17:53:38.649Z,103014.03
2022-10-18T17:56:05.684Z,103023.59
2022-10-18T17:58:32.323Z,103024.06
2022-10-18T18:01:09.655Z,103023.28
2022-10-18T18:03:36.183Z,103027.50
2022-10-18T18:06:16.369Z,103029.03
2022-10-18T18:08:42.934Z,103038.59
2022-10-18T18:11:09.400Z,103045.44
2022-10-18T18:13:35.819Z,103040.13
2022-10-18T18:16:18.417Z,103044.31
2022-10-18T18:18:46.119Z,103043.19
2022-10-18T18:21:13.337Z,103036.38
2022-10-18T18:23:39.959Z,103036.38
2022-10-18T18:26:06.755Z,103040.19
2022-10-18T18:28:34.426Z,103044.78
2022-10-18T18:31:12.448Z,103037.16
2022-10-18T18:33:38.859Z,103040.59
2022-10-18T18:36:06.640Z,103043.66
2022-10-18T18:38:34.455Z,103039.50
2022-10-18T18:41:09.757Z,103041.78
2022-10-18T18:43:37.580Z,103042.50
2022-10-18T18:46:04.717Z,103047.44
2022-10-18T18:48:33.661Z,103056.19
2022-10-18T18:51:01.963Z,103059.22
2022-10-18T18:53:29.714Z,103056.19
2022-10-18T18:56:08.151Z,103064.91
2022-10-18T18:58:36.328Z,103063.41
2022-10-18T19:01:11.739Z,103065.28
2022-10-18T19:03:40.121Z,103062.59
2022-10-18T19:06:09.576Z,103058.81
2022-10-18T19:08:37.587Z,103053.84
2022-10-18T19:11:08.122Z,103065.97
2022-10-18T19:13:35.674Z,103053.84
2022-10-18T19:16:21.805Z,103055.34
2022-10-18T19:19:12.001Z,103054.97
2022-10-18T19:21:44.377Z,103065.19
2022-10-18T19:24:11.397Z,103057.19
2022-10-18T19:26:44.702Z,103065.53
2022-10-18T19:29:12.942Z,103068.94
2022-10-18T19:31:39.683Z,103061.31
2022-10-18T19:34:08.844Z,103070.03
2022-10-18T19:36:36.457Z,103063.19
2022-10-18T19:39:03.993Z,103063.19
2022-10-18T19:41:30.386Z,103060.88
2022-10-18T19:43:57.107Z,103065.41
2022-10-18T19:46:24.267Z,103063.50
2022-10-18T19:48:51.182Z,103064.22
2022-10-18T19:51:21.029Z,103052.44
2022-10-18T19:53:50.545Z,103053.16
2022-10-18T19:56:20.325Z,103053.16
2022-10-18T19:58:47.711Z,103060.72
2022-10-18T20:01:15.367Z,103063.00
2022-10-18T20:03:42.536Z,103053.09
2022-10-18T20:06:09.310Z,103055.38
2022-10-18T20:08:37.432Z,103058.38
2022-10-18T20:11:07.033Z,103057.19
2022-10-18T20:13:34.568Z,103063.97
2022-10-18T20:16:03.764Z,103072.25
2022-10-18T20:18:30.435Z,103067.31
2022-10-18T20:20:56.848Z,103075.63
2022-10-18T20:23:23.233Z,103064.63
2022-10-18T20:26:01.091Z,103067.28
2022-10-18T20:28:28.123Z,103065.66
2022-10-18T20:31:02.697Z,103064.09
2022-10-18T20:33:29.197Z,103062.50
2022-10-18T20:35:55.699Z,103064.00
2022-10-18T20:38:22.270Z,103067.00
2022-10-18T20:40:48.708Z,103074.91
2022-10-18T20:43:15.132Z,103065.00
2022-10-18T20:45:41.554Z,103057.75
2022-10-18T20:48:07.940Z,103059.97
2022-10-18T20:50:34.377Z,103062.59
2022-10-18T20:53:00.779Z,103061.81
2022-10-18T20:55:28.853Z,103049.31
2022-10-18T20:57:55.263Z,103053.09
2022-10-18T21:00:21.703Z,103054.19
2022-10-18T21:02:48.079Z,103051.88
2022-10-18T21:05:16.448Z,103047.28
2022-10-18T21:07:42.900Z,103042.31
2022-10-18T21:10:09.375Z,103054.03
2022-10-18T21:12:36.084Z,103054.75
2022-10-18T21:15:02.677Z,103050.56
2022-10-18T21:17:29.092Z,103046.66
2022-10-18T21:19:55.472Z,103049.31
2022-10-18T21:22:21.847Z,103047.78
2022-10-18T21:24:50.308Z,103044.69
2022-10-18T21:27:16.684Z,103042.00
2022-10-18T21:29:43.108Z,103038.94
2022-10-18T21:32:09.526Z,103052.88
2022-10-18T21:34:35.908Z,103043.75
2022-10-18T21:37:02.291Z,103046.34
2022-10-18T21:39:29.900Z,103049.38
2022-10-18T21:41:56.291Z,103045.94
2022-10-18T21:44:22.822Z,103042.44
2022-10-18T21:46:49.749Z,103049.56
2022-10-18T21:49:16.721Z,103058.22
2022-10-18T21:51:44.046Z,103058.16
2022-10-18T21:54:15.254Z,103057.34
2022-10-18T21:56:41.790Z,103056.94
2022-10-18T21:59:09.910Z,103055.78
2022-10-18T22:01:37.753Z,103048.91
2022-10-18T22:04:07.234Z,103050.03
2022-10-18T22:09:08.172Z,103038.91
2022-10-18T22:11:38.263Z,103037.78
2022-10-18T22:14:04.858Z,103036.97
2022-10-18T22:16:31.580Z,103035.78
2022-10-18T22:19:00.107Z,103041.09
2022-10-18T22:21:27.801Z,103037.25
2022-10-18T22:23:58.648Z,103036.09
2022-10-18T22:26:36.051Z,103038.28
2022-10-18T22:29:09.789Z,103037.88
2022-10-18T22:31:38.631Z,103031.75
2022-10-18T22:34:07.850Z,103036.28
2022-10-18T22:36:35.300Z,103035.16
2022-10-18T22:39:02.002Z,103030.22
2022-10-18T22:41:28.494Z,103032.09
2022-10-18T22:43:56.462Z,103030.22
2022-10-18T22:46:25.986Z,103035.50
2022-10-18T22:48:52.560Z,103034.34
2022-10-18T22:51:18.978Z,103027.88
2022-10-18T22:53:45.533Z,103028.16
2022-10-18T22:56:15.029Z,103023.22
2022-10-18T22:58:41.445Z,103025.09
2022-10-18T23:01:13.792Z,103026.63
2022-10-18T23:03:40.607Z,103023.91
2022-10-18T23:06:25.533Z,103022.78
2022-10-18T23:08:53.751Z,103023.91
2022-10-18T23:11:21.152Z,103023.50
2022-10-18T23:13:47.597Z,103024.63
2022-10-18T23:16:14.659Z,103018.50
2022-10-18T23:18:41.606Z,103020.31
2022-10-18T23:21:13.459Z,103018.03
2022-10-18T23:23:41.214Z,103010.41
2022-10-18T23:26:15.123Z,103012.56
2022-10-18T23:28:43.952Z,103018.16
2022-10-18T23:31:11.778Z,103017.34
2022-10-18T23:33:38.705Z,103027.56
2022-10-18T23:36:07.058Z,103021.88
2022-10-18T23:38:33.787Z,103024.88
2022-10-18T23:41:00.291Z,103029.94
2022-10-18T23:43:26.753Z,103030.97
2022-10-18T23:45:53.447Z,103031.69
2022-10-18T23:48:19.852Z,103036.47
2022-10-18T23:50:46.414Z,103033.34
2022-10-18T23:53:13.041Z,103040.50
2022-10-18T23:55:39.447Z,103035.22
2022-10-18T23:58:05.829Z,103034.75
